createdAt,value
2018-04-24T00:01:42.282Z,12.60
2018-04-24T00:04:09.783Z,12.60
2018-04-24T00:06:37.253Z,12.50
2018-04-24T00:09:05.549Z,12.40
2018-04-24T00:11:33.782Z,12.50
2018-04-24T00:14:01.280Z,12.40
2018-04-24T00:16:29.517Z,12.40
2018-04-24T00:18:57.021Z,12.40
2018-04-24T00:21:25.312Z,12.40
2018-04-24T00:23:52.802Z,12.40
2018-04-24T00:26:20.280Z,12.40
2018-04-24T00:28:47.801Z,12.40
2018-04-24T00:31:15.279Z,12.40
2018-04-24T00:33:42.760Z,12.40
2018-04-24T00:36:11.041Z,12.40
2018-04-24T00:38:38.580Z,12.40
2018-04-24T00:41:06.080Z,12.40
2018-04-24T00:43:34.341Z,12.50
2018-04-24T00:46:01.803Z,12.50
2018-04-24T00:48:29.296Z,12.50
2018-04-24T00:50:56.762Z,12.50
2018-04-24T00:53:36.193Z,12.50
2018-04-24T00:56:04.405Z,12.50
2018-04-24T00:58:31.909Z,12.50
2018-04-24T01:01:00.145Z,12.50
2018-04-24T01:03:27.636Z,12.50
2018-04-24T01:05:55.900Z,12.50
2018-04-24T01:08:23.364Z,12.50
2018-04-24T01:10:50.876Z,12.50
2018-04-24T01:13:18.364Z,12.50
2018-04-24T01:15:45.883Z,12.50
2018-04-24T01:18:13.344Z,12.40
2018-04-24T01:20:40.841Z,12.40
2018-04-24T01:23:08.317Z,12.30
2018-04-24T01:25:36.574Z,12.10
2018-04-24T01:28:04.041Z,12.10
2018-04-24T01:30:31.541Z,12.10
2018-04-24T01:32:59.006Z,12.10
2018-04-24T01:35:26.472Z,12.20
2018-04-24T01:37:53.976Z,12.20
2018-04-24T01:40:21.477Z,12.20
2018-04-24T01:42:48.976Z,12.20
2018-04-24T01:45:16.455Z,12.20
2018-04-24T01:47:43.941Z,12.20
2018-04-24T01:50:11.406Z,12.20
2018-04-24T01:52:38.897Z,12.20
2018-04-24T01:55:06.380Z,12.20
2018-04-24T01:57:33.877Z,12.20
2018-04-24T02:00:01.350Z,12.10
2018-04-24T02:02:28.844Z,12.10
2018-04-24T02:04:56.349Z,12.00
2018-04-24T02:07:24.601Z,11.90
2018-04-24T02:09:52.088Z,11.90
2018-04-24T02:12:19.592Z,11.90
2018-04-24T02:14:47.059Z,11.90
2018-04-24T02:17:14.516Z,11.80
2018-04-24T02:19:42.020Z,11.80
2018-04-24T02:22:10.260Z,11.70
2018-04-24T02:24:37.777Z,11.70
2018-04-24T02:27:05.258Z,11.70
2018-04-24T02:29:32.744Z,11.60
2018-04-24T02:32:00.211Z,11.50
2018-04-24T02:34:27.696Z,11.40
2018-04-24T02:36:55.295Z,11.30
2018-04-24T02:39:22.716Z,11.20
2018-04-24T02:41:50.184Z,11.10
2018-04-24T02:44:17.676Z,11.00
2018-04-24T02:46:45.163Z,10.90
2018-04-24T02:49:12.652Z,10.80
2018-04-24T02:51:40.142Z,10.70
2018-04-24T02:54:07.607Z,10.50
2018-04-24T02:56:35.116Z,10.50
2018-04-24T02:59:02.653Z,10.40
2018-04-24T03:01:30.105Z,10.30
2018-04-24T03:03:57.626Z,10.30
2018-04-24T03:06:25.083Z,10.20
2018-04-24T03:08:52.580Z,10.10
2018-04-24T03:11:20.042Z,10.00
2018-04-24T03:13:47.530Z,10.00
2018-04-24T03:16:15.004Z,10.00
2018-04-24T03:18:42.496Z,9.90
2018-04-24T03:21:09.954Z,9.90
2018-04-24T03:23:37.457Z,9.90
2018-04-24T03:26:05.710Z,10.00
2018-04-24T03:28:33.192Z,9.90
2018-04-24T03:31:01.433Z,10.00
2018-04-24T03:33:28.941Z,10.00
2018-04-24T03:35:56.451Z,10.10
2018-04-24T03:38:23.939Z,10.20
2018-04-24T03:40:52.213Z,10.20
2018-04-24T03:43:20.448Z,10.20
2018-04-24T03:45:47.948Z,10.20
2018-04-24T03:48:16.188Z,10.20
2018-04-24T03:50:43.681Z,10.20
2018-04-24T03:53:11.925Z,10.20
2018-04-24T03:55:39.416Z,10.20
2018-04-24T03:58:07.640Z,10.30
2018-04-24T04:00:35.137Z,10.30
2018-04-24T04:03:02.611Z,10.30
2018-04-24T04:05:30.881Z,10.30
2018-04-24T04:07:58.345Z,10.30
2018-04-24T04:10:26.640Z,10.40
2018-04-24T04:12:54.871Z,10.40
2018-04-24T04:15:22.345Z,10.30
2018-04-24T04:18:01.729Z,10.40
2018-04-24T04:20:41.095Z,10.40
2018-04-24T04:23:20.584Z,10.30
2018-04-24T04:25:48.108Z,10.20
2018-04-24T04:28:15.594Z,10.20
2018-04-24T04:30:43.957Z,10.10
2018-04-24T04:33:11.475Z,10.00
2018-04-24T04:35:38.952Z,10.00
2018-04-24T04:38:06.469Z,10.10
2018-04-24T04:40:33.945Z,10.00
2018-04-24T04:43:01.457Z,10.10
2018-04-24T04:45:28.933Z,10.10
2018-04-24T04:47:57.252Z,10.20
2018-04-24T04:50:25.456Z,10.20
2018-04-24T04:52:52.955Z,10.20
2018-04-24T04:55:20.425Z,10.10
2018-04-24T04:57:47.942Z,10.20
2018-04-24T05:00:15.432Z,10.20
2018-04-24T05:02:42.889Z,10.30
2018-04-24T05:05:10.391Z,10.30
2018-04-24T05:07:37.892Z,10.30
2018-04-24T05:10:06.173Z,10.20
2018-04-24T05:12:34.412Z,10.20
2018-04-24T05:15:01.911Z,10.10
2018-04-24T05:17:29.372Z,10.20
2018-04-24T05:19:56.863Z,10.20
2018-04-24T05:22:24.368Z,10.20
2018-04-24T05:24:52.601Z,10.30
2018-04-24T05:27:20.105Z,10.30
2018-04-24T05:29:48.335Z,10.40
2018-04-24T05:32:15.854Z,10.30
2018-04-24T05:34:44.107Z,10.50
2018-04-24T05:37:11.589Z,10.50
2018-04-24T05:39:39.869Z,10.60
2018-04-24T05:42:08.141Z,10.70
2018-04-24T05:44:36.385Z,10.70
2018-04-24T05:47:03.888Z,10.70
2018-04-24T05:49:31.385Z,10.80
2018-04-24T05:51:58.893Z,10.80
2018-04-24T05:54:27.160Z,11.00
2018-04-24T05:56:55.432Z,11.10
2018-04-24T05:59:23.689Z,11.20
2018-04-24T06:01:51.159Z,11.20
2018-04-24T06:04:18.644Z,11.40
2018-04-24T06:06:46.900Z,11.70
2018-04-24T06:09:15.174Z,11.90
2018-04-24T06:11:42.669Z,11.80
2018-04-24T06:14:10.161Z,12.10
2018-04-24T06:16:37.669Z,12.10
2018-04-24T06:19:05.924Z,12.40
2018-04-24T06:21:33.407Z,12.40
2018-04-24T06:24:01.665Z,12.70
2018-04-24T06:26:29.148Z,12.70
2018-04-24T06:28:56.660Z,12.90
2018-04-24T06:31:24.133Z,13.10
2018-04-24T06:33:51.607Z,13.40
2018-04-24T06:36:19.862Z,13.70
2018-04-24T06:38:48.857Z,14.00
2018-04-24T06:41:16.363Z,14.00
2018-04-24T06:43:43.848Z,14.30
2018-04-24T06:46:11.362Z,14.40
2018-04-24T06:48:39.637Z,14.60
2018-04-24T06:51:07.915Z,14.60
2018-04-24T06:53:36.181Z,14.70
2018-04-24T06:56:04.462Z,14.90
2018-04-24T06:58:32.723Z,15.20
2018-04-24T07:01:01.038Z,15.10
2018-04-24T07:03:28.499Z,15.10
2018-04-24T07:05:56.023Z,15.10
2018-04-24T07:08:23.482Z,15.20
2018-04-24T07:10:52.485Z,15.50
2018-04-24T07:13:20.731Z,15.60
2018-04-24T07:15:48.237Z,15.60
2018-04-24T07:18:15.774Z,15.50
2018-04-24T07:20:44.392Z,15.40
2018-04-24T07:23:11.888Z,15.40
2018-04-24T07:25:39.391Z,15.40
2018-04-24T07:28:07.773Z,15.10
2018-04-24T07:30:36.003Z,14.90
2018-04-24T07:33:03.517Z,14.90
2018-04-24T07:35:31.752Z,15.20
2018-04-24T07:37:59.211Z,15.20
2018-04-24T07:40:26.697Z,15.60
2018-04-24T07:42:54.917Z,15.50
2018-04-24T07:45:22.449Z,15.50
2018-04-24T07:47:49.970Z,15.90
2018-04-24T07:50:17.459Z,16.30
2018-04-24T07:52:45.697Z,16.70
2018-04-24T07:55:13.180Z,16.60
2018-04-24T07:57:41.426Z,17.00
2018-04-24T08:00:08.953Z,16.90
2018-04-24T08:02:36.417Z,17.00
2018-04-24T08:05:03.930Z,17.10
2018-04-24T08:07:31.406Z,17.20
2018-04-24T08:09:59.661Z,16.80
2018-04-24T08:12:27.137Z,16.80
2018-04-24T08:14:55.431Z,17.30
2018-04-24T08:17:22.942Z,17.20
2018-04-24T08:19:50.404Z,17.40
2018-04-24T08:22:17.908Z,17.30
2018-04-24T08:24:45.375Z,17.40
2018-04-24T08:27:12.877Z,17.80
2018-04-24T08:29:40.342Z,17.40
2018-04-24T08:32:07.821Z,17.30
2018-04-24T08:34:36.081Z,17.50
2018-04-24T08:37:03.568Z,17.40
2018-04-24T08:39:31.045Z,17.70
2018-04-24T08:41:58.568Z,18.00
2018-04-24T08:44:26.796Z,18.60
2018-04-24T08:46:54.321Z,18.60
2018-04-24T08:49:21.789Z,18.20
2018-04-24T08:51:49.262Z,18.40
2018-04-24T08:54:16.775Z,18.00
2018-04-24T08:56:45.052Z,18.60
2018-04-24T08:59:13.286Z,19.00
2018-04-24T09:01:40.756Z,19.00
2018-04-24T09:04:08.264Z,19.30
2018-04-24T09:06:35.748Z,18.70
2018-04-24T09:09:03.266Z,18.60
2018-04-24T09:11:31.989Z,19.30
2018-04-24T09:13:59.493Z,19.30
2018-04-24T09:16:26.993Z,19.50
2018-04-24T09:18:54.510Z,19.60
2018-04-24T09:21:22.014Z,19.30
2018-04-24T09:23:49.524Z,19.10
2018-04-24T09:26:16.989Z,19.30
2018-04-24T09:28:44.522Z,19.40
2018-04-24T09:31:11.996Z,19.00
2018-04-24T09:33:39.586Z,18.80
2018-04-24T09:36:07.033Z,19.10
2018-04-24T09:38:34.485Z,19.40
2018-04-24T09:41:01.985Z,19.60
2018-04-24T09:43:29.476Z,19.90
2018-04-24T09:45:57.014Z,19.90
2018-04-24T09:48:25.216Z,20.20
2018-04-24T09:50:52.725Z,20.20
2018-04-24T09:53:20.949Z,19.90
2018-04-24T09:55:48.448Z,19.80
2018-04-24T09:58:16.729Z,20.20
2018-04-24T10:00:44.989Z,20.40
2018-04-24T10:03:12.458Z,20.40
2018-04-24T10:05:40.721Z,20.80
2018-04-24T10:08:08.205Z,20.80
2018-04-24T10:10:36.449Z,20.70
2018-04-24T10:13:04.038Z,20.70
2018-04-24T10:15:31.445Z,21.10
2018-04-24T10:17:58.950Z,21.60
2018-04-24T10:20:27.181Z,21.50
2018-04-24T10:22:54.668Z,21.50
2018-04-24T10:25:22.904Z,21.00
2018-04-24T10:27:50.410Z,21.00
2018-04-24T10:30:17.876Z,21.20
2018-04-24T10:32:46.128Z,21.20
2018-04-24T10:35:13.619Z,21.20
2018-04-24T10:37:41.894Z,21.10
2018-04-24T10:40:10.128Z,21.20
2018-04-24T10:42:37.626Z,21.20
2018-04-24T10:45:05.887Z,21.50
2018-04-24T10:47:33.410Z,21.50
2018-04-24T10:50:00.911Z,21.60
2018-04-24T10:52:28.400Z,21.50
2018-04-24T10:54:55.885Z,21.40
2018-04-24T10:57:23.341Z,21.70
2018-04-24T10:59:50.853Z,21.50
2018-04-24T11:02:19.111Z,21.30
2018-04-24T11:04:46.597Z,21.30
2018-04-24T11:07:14.837Z,20.90
2018-04-24T11:09:42.320Z,20.90
2018-04-24T11:12:10.570Z,21.40
2018-04-24T11:14:38.688Z,21.40
2018-04-24T11:17:06.986Z,21.70
2018-04-24T11:19:35.225Z,21.40
2018-04-24T11:22:03.452Z,21.60
2018-04-24T11:24:30.968Z,21.60
2018-04-24T11:26:59.209Z,21.60
2018-04-24T11:29:26.785Z,21.60
2018-04-24T11:31:54.277Z,21.40
2018-04-24T11:34:21.823Z,21.70
2018-04-24T11:36:49.249Z,21.70
2018-04-24T11:39:16.743Z,21.80
2018-04-24T11:41:44.260Z,21.70
2018-04-24T11:44:11.767Z,21.60
2018-04-24T11:46:39.292Z,22.00
2018-04-24T11:49:06.764Z,21.60
2018-04-24T11:51:34.222Z,21.50
2018-04-24T11:54:02.493Z,22.60
2018-04-24T11:56:30.032Z,22.60
2018-04-24T11:58:59.240Z,22.00
2018-04-24T12:01:26.878Z,22.40
2018-04-24T12:03:54.937Z,22.40
2018-04-24T12:06:23.161Z,21.90
2018-04-24T12:08:50.740Z,21.90
2018-04-24T12:11:19.525Z,22.40
2018-04-24T12:13:47.802Z,22.40
2018-04-24T12:16:16.072Z,22.20
2018-04-24T12:18:43.574Z,22.20
2018-04-24T12:21:11.056Z,22.40
2018-04-24T12:23:38.560Z,22.30
2018-04-24T12:26:06.814Z,23.00
2018-04-24T12:28:34.306Z,22.90
2018-04-24T12:31:01.835Z,22.50
2018-04-24T12:33:30.124Z,22.60
2018-04-24T12:35:58.370Z,22.80
2018-04-24T12:38:25.822Z,22.80
2018-04-24T12:40:53.333Z,22.70
2018-04-24T12:43:20.804Z,22.80
2018-04-24T12:45:48.335Z,22.40
2018-04-24T12:48:16.581Z,22.40
2018-04-24T12:50:44.081Z,22.40
2018-04-24T12:53:12.328Z,22.60
2018-04-24T12:55:39.825Z,22.60
2018-04-24T12:58:07.296Z,22.80
2018-04-24T13:00:34.801Z,22.90
2018-04-24T13:03:02.273Z,22.80
2018-04-24T13:05:30.584Z,23.10
2018-04-24T13:07:58.058Z,23.10
2018-04-24T13:10:25.509Z,22.90
2018-04-24T13:12:53.015Z,23.10
2018-04-24T13:15:20.473Z,23.00
2018-04-24T13:17:47.974Z,23.10
2018-04-24T13:20:15.466Z,22.70
2018-04-24T13:22:43.104Z,22.90
2018-04-24T13:25:10.597Z,22.70
2018-04-24T13:27:38.114Z,22.70
2018-04-24T13:30:05.579Z,22.60
2018-04-24T13:32:33.105Z,22.70
2018-04-24T13:35:01.358Z,22.40
2018-04-24T13:37:28.853Z,22.40
2018-04-24T13:39:57.104Z,22.20
2018-04-24T13:42:24.633Z,22.20
2018-04-24T13:44:52.179Z,22.00
2018-04-24T13:47:19.684Z,21.90
2018-04-24T13:49:47.167Z,22.00
2018-04-24T13:52:15.408Z,21.90
2018-04-24T13:54:44.413Z,21.80
2018-04-24T13:57:11.877Z,21.80
2018-04-24T13:59:40.141Z,21.90
2018-04-24T14:02:08.376Z,21.90
2018-04-24T14:04:35.870Z,21.90
2018-04-24T14:07:03.338Z,21.70
2018-04-24T14:09:30.838Z,21.90
2018-04-24T14:11:58.300Z,22.00
2018-04-24T14:14:25.803Z,22.10
2018-04-24T14:16:53.284Z,22.00
2018-04-24T14:19:21.563Z,21.80
2018-04-24T14:21:49.842Z,21.80
2018-04-24T14:24:17.348Z,21.80
2018-04-24T14:26:44.832Z,21.80
2018-04-24T14:29:12.293Z,21.90
2018-04-24T14:31:39.790Z,21.90
2018-04-24T14:34:07.253Z,21.60
2018-04-24T14:36:34.744Z,21.60
2018-04-24T14:39:02.225Z,21.60
2018-04-24T14:41:29.725Z,21.70
2018-04-24T14:43:57.461Z,21.70
2018-04-24T14:46:24.954Z,21.80
2018-04-24T14:48:52.445Z,21.90
2018-04-24T14:51:20.742Z,21.80
2018-04-24T14:53:48.208Z,21.60
2018-04-24T14:56:15.757Z,21.40
2018-04-24T14:58:43.894Z,21.50
2018-04-24T15:01:11.403Z,21.40
2018-04-24T15:03:38.889Z,21.30
2018-04-24T15:06:07.157Z,21.00
2018-04-24T15:08:35.385Z,21.00
2018-04-24T15:11:02.909Z,20.90
2018-04-24T15:13:30.426Z,21.00
2018-04-24T15:15:57.921Z,21.00
2018-04-24T15:18:25.443Z,21.00
2018-04-24T15:20:52.932Z,21.00
2018-04-24T15:23:21.194Z,20.90
2018-04-24T15:25:49.537Z,20.80
2018-04-24T15:28:17.036Z,20.80
2018-04-24T15:30:45.261Z,20.90
2018-04-24T15:33:12.762Z,20.90
2018-04-24T15:35:40.227Z,20.70
2018-04-24T15:38:08.503Z,20.50
2018-04-24T15:40:35.989Z,20.40
2018-04-24T15:43:03.449Z,20.40
2018-04-24T15:45:30.947Z,20.40
2018-04-24T15:47:58.508Z,20.40
2018-04-24T15:50:26.698Z,20.20
2018-04-24T15:52:54.183Z,20.20
2018-04-24T15:55:23.195Z,19.90
2018-04-24T15:57:50.665Z,19.90
2018-04-24T16:00:18.169Z,19.90
2018-04-24T16:02:45.721Z,19.70
2018-04-24T16:05:13.913Z,19.70
2018-04-24T16:07:42.180Z,19.60
2018-04-24T16:10:09.703Z,19.60
2018-04-24T16:12:37.199Z,19.70
2018-04-24T16:15:04.690Z,19.60
2018-04-24T16:17:32.926Z,19.40
2018-04-24T16:20:00.425Z,19.40
2018-04-24T16:22:27.890Z,19.40
2018-04-24T16:24:55.362Z,19.30
2018-04-24T16:27:22.894Z,19.20
2018-04-24T16:29:50.431Z,19.20
2018-04-24T16:32:18.609Z,19.20
2018-04-24T16:34:46.097Z,19.10
2018-04-24T16:37:13.589Z,19.10
2018-04-24T16:39:41.103Z,19.10
2018-04-24T16:42:09.372Z,19.00
2018-04-24T16:44:37.627Z,19.00
2018-04-24T16:47:05.124Z,18.90
2018-04-24T16:49:32.635Z,18.90
2018-04-24T16:52:00.104Z,18.80
2018-04-24T16:54:27.695Z,18.70
2018-04-24T16:56:55.095Z,18.60
2018-04-24T16:59:22.597Z,18.50
2018-04-24T17:01:50.863Z,18.50
2018-04-24T17:04:18.359Z,18.40
2018-04-24T17:06:45.845Z,18.40
2018-04-24T17:09:13.340Z,18.40
2018-04-24T17:11:40.804Z,18.40
2018-04-24T17:14:09.057Z,18.30
2018-04-24T17:16:36.543Z,18.30
2018-04-24T17:19:04.773Z,18.20
2018-04-24T17:21:32.254Z,18.20
2018-04-24T17:23:59.747Z,18.20
2018-04-24T17:26:27.993Z,18.10
2018-04-24T17:28:55.485Z,18.10
2018-04-24T17:31:23.753Z,17.90
2018-04-24T17:33:51.985Z,17.90
2018-04-24T17:36:19.463Z,17.80
2018-04-24T17:38:47.733Z,17.60
2018-04-24T17:41:15.246Z,17.60
2018-04-24T17:43:42.709Z,17.50
2018-04-24T17:46:10.203Z,17.40
2018-04-24T17:48:37.693Z,17.30
2018-04-24T17:51:05.166Z,17.20
2018-04-24T17:53:32.676Z,17.10
2018-04-24T17:56:00.141Z,17.10
2018-04-24T17:58:27.658Z,17.00
2018-04-24T18:00:55.153Z,16.90
2018-04-24T18:03:22.661Z,16.80
2018-04-24T18:05:50.909Z,16.60
2018-04-24T18:08:18.380Z,16.60
2018-04-24T18:10:46.645Z,16.30
2018-04-24T18:13:14.126Z,16.20
2018-04-24T18:15:42.399Z,16.00
2018-04-24T18:18:10.676Z,15.90
2018-04-24T18:20:38.966Z,15.80
2018-04-24T18:23:07.254Z,15.60
2018-04-24T18:25:34.757Z,15.60
2018-04-24T18:28:02.279Z,15.60
2018-04-24T18:30:29.783Z,15.40
2018-04-24T18:32:57.231Z,15.40
2018-04-24T18:35:24.711Z,15.30
2018-04-24T18:37:52.216Z,15.20
2018-04-24T18:40:19.771Z,15.20
2018-04-24T18:42:48.018Z,14.80
2018-04-24T18:45:16.274Z,14.70
2018-04-24T18:47:44.606Z,14.50
2018-04-24T18:50:12.069Z,14.50
2018-04-24T18:52:39.626Z,14.40
2018-04-24T18:55:07.096Z,14.30
2018-04-24T18:57:34.613Z,14.20
2018-04-24T19:00:02.118Z,14.10
2018-04-24T19:02:29.617Z,14.00
2018-04-24T19:04:57.126Z,13.90
2018-04-24T19:07:24.626Z,13.90
2018-04-24T19:09:52.080Z,13.90
2018-04-24T19:12:19.600Z,13.80
2018-04-24T19:14:47.061Z,13.70
2018-04-24T19:17:14.575Z,13.60
2018-04-24T19:19:42.828Z,13.40
2018-04-24T19:22:10.306Z,13.40
2018-04-24T19:24:44.252Z,13.20
2018-04-24T19:27:11.728Z,13.20
2018-04-24T19:29:39.256Z,13.20
2018-04-24T19:32:13.235Z,13.00
2018-04-24T19:34:40.775Z,13.00
2018-04-24T19:37:08.241Z,13.00
2018-04-24T19:39:42.266Z,12.80
2018-04-24T19:42:09.728Z,12.80
2018-04-24T19:44:37.216Z,12.80
2018-04-24T19:47:04.708Z,12.60
2018-04-24T19:49:37.941Z,12.60
2018-04-24T19:52:06.189Z,12.50
2018-04-24T19:54:33.688Z,12.40
2018-04-24T19:57:01.932Z,12.40
2018-04-24T19:59:30.209Z,12.30
2018-04-24T20:01:57.692Z,12.30
2018-04-24T20:04:25.998Z,12.20
2018-04-24T20:06:54.196Z,12.10
2018-04-24T20:09:21.672Z,12.10
2018-04-24T20:11:49.165Z,12.10
2018-04-24T20:14:16.668Z,12.00
2018-04-24T20:16:44.153Z,12.00
2018-04-24T20:19:11.635Z,11.90
2018-04-24T20:21:39.907Z,11.70
2018-04-24T20:24:08.148Z,11.70
2018-04-24T20:26:35.665Z,11.60
2018-04-24T20:29:03.892Z,11.70
2018-04-24T20:31:31.402Z,11.70
2018-04-24T20:33:58.890Z,11.60
2018-04-24T20:36:27.028Z,11.60
2018-04-24T20:38:55.264Z,11.50
2018-04-24T20:41:22.795Z,11.50
2018-04-24T20:43:50.266Z,11.40
2018-04-24T20:46:17.756Z,11.40
2018-04-24T20:48:45.253Z,11.30
2018-04-24T20:51:12.879Z,11.20
2018-04-24T20:53:40.395Z,11.10
2018-04-24T20:56:07.882Z,11.10
2018-04-24T20:58:35.384Z,11.10
2018-04-24T21:01:03.807Z,11.00
2018-04-24T21:03:32.035Z,11.00
2018-04-24T21:06:00.253Z,10.90
2018-04-24T21:08:27.781Z,10.90
2018-04-24T21:10:55.240Z,11.00
2018-04-24T21:13:22.740Z,10.90
2018-04-24T21:15:50.244Z,10.90
2018-04-24T21:18:18.486Z,10.80
2018-04-24T21:20:45.968Z,10.70
2018-04-24T21:23:14.217Z,10.50
2018-04-24T21:25:41.733Z,10.50
2018-04-24T21:28:09.202Z,10.50
2018-04-24T21:30:36.708Z,10.50
2018-04-24T21:33:04.182Z,10.50
2018-04-24T21:35:32.436Z,10.30
2018-04-24T21:37:59.928Z,10.20
2018-04-24T21:40:28.209Z,10.30
2018-04-24T21:42:56.457Z,10.20
2018-04-24T21:45:23.941Z,10.20
2018-04-24T21:47:52.171Z,10.00
2018-04-24T21:50:19.652Z,10.00
2018-04-24T21:52:47.125Z,10.00
2018-04-24T21:55:15.406Z,9.90
2018-04-24T21:57:43.624Z,10.00
2018-04-24T22:00:11.097Z,9.90
2018-04-24T22:02:38.600Z,10.00
2018-04-24T22:05:06.836Z,10.00
2018-04-24T22:07:34.386Z,10.00
2018-04-24T22:10:01.867Z,9.90
2018-04-24T22:12:29.353Z,9.90
2018-04-24T22:14:57.576Z,9.70
2018-04-24T22:17:25.061Z,9.70
2018-04-24T22:19:53.220Z,9.60
2018-04-24T22:22:20.720Z,9.50
2018-04-24T22:24:48.977Z,9.50
2018-04-24T22:27:16.459Z,9.50
2018-04-24T22:29:44.679Z,9.40
2018-04-24T22:32:12.188Z,9.40
2018-04-24T22:34:40.405Z,9.30
2018-04-24T22:37:07.894Z,9.30
2018-04-24T22:39:35.390Z,9.30
2018-04-24T22:42:02.858Z,9.20
2018-04-24T22:44:30.360Z,9.10
2018-04-24T22:46:57.825Z,9.00
2018-04-24T22:49:25.338Z,9.00
2018-04-24T22:51:52.811Z,8.90
2018-04-24T22:54:20.320Z,8.90
2018-04-24T22:56:48.549Z,8.90
2018-04-24T22:59:16.048Z,8.90
2018-04-24T23:01:43.512Z,8.80
2018-04-24T23:04:11.777Z,8.70
2018-04-24T23:06:39.268Z,8.70
2018-04-24T23:09:06.789Z,8.70
2018-04-24T23:11:46.161Z,8.70
2018-04-24T23:14:25.644Z,8.70
2018-04-24T23:17:05.193Z,8.70
2018-04-24T23:19:44.625Z,8.60
2018-04-24T23:22:19.092Z,8.60
2018-04-24T23:24:47.344Z,8.50
2018-04-24T23:27:14.877Z,8.50
2018-04-24T23:29:42.389Z,8.40
2018-04-24T23:32:10.657Z,8.40
2018-04-24T23:34:38.141Z,8.40
2018-04-24T23:37:05.625Z,8.40
2018-04-24T23:39:33.142Z,8.30
2018-04-24T23:42:01.386Z,8.30
2018-04-24T23:44:28.900Z,8.20
2018-04-24T23:46:56.366Z,8.20
2018-04-24T23:49:23.873Z,8.20
2018-04-24T23:51:51.341Z,8.10
2018-04-24T23:54:19.618Z,8.10
2018-04-24T23:56:47.081Z,8.10
2018-04-24T23:59:15.324Z,8.00
